.
WxDataArchive / Data Records for 2007-04-14
2007-04-13 April 2007 2007-04-15

Data Records for Saturday, 14 April 2007

Time	Temp	Chill	HIndex	Humid	Dewpt	 Wind 	HiWind	WindDir	Rain 	Barom 
-----	----	-----	------	-----	-----	------	------	-------	-----	----- 
00:00	36.0	36.0	36.0	58	22.7	0	0	---	0.00	30.103 
00:05	36.0	36.0	36.0	58	22.7	0	0	---	0.00	30.101 
00:10	36.2	36.2	36.2	58	22.9	0	0	---	0.00	30.098 
00:15	36.3	36.3	36.3	58	23.0	0	0	---	0.00	30.096 
00:20	36.5	36.5	36.5	57	22.7	0	0	---	0.00	30.101 
00:25	36.6	36.6	36.6	57	22.8	0	0	---	0.00	30.101 
00:30	36.8	36.8	36.8	56	22.6	0	0	---	0.00	30.095 
00:35	36.9	36.9	36.9	56	22.7	0	1	315	0.00	30.091 
00:40	36.9	36.9	36.9	55	22.3	0	0	---	0.00	30.090 
00:45	36.9	36.9	36.9	55	22.3	0	0	---	0.00	30.087 
00:50	37.0	37.0	37.0	54	21.9	0	0	---	0.00	30.086 
00:55	37.0	37.0	37.0	55	22.4	0	0	---	0.00	30.088 
01:00	37.0	37.0	37.0	55	22.4	0	0	---	0.00	30.089 
01:05	37.0	37.0	37.0	55	22.4	0	0	---	0.00	30.088 
01:10	36.9	36.9	36.9	56	22.7	0	0	---	0.00	30.086 
01:15	36.8	36.8	36.8	56	22.6	0	0	---	0.00	30.085 
01:20	36.8	36.8	36.8	56	22.6	0	0	---	0.00	30.083 
01:25	36.6	36.6	36.6	56	22.4	0	0	---	0.00	30.084 
01:30	36.5	36.5	36.5	56	22.3	0	0	---	0.00	30.082 
01:35	36.3	36.3	36.3	56	22.1	0	0	---	0.00	30.078 
01:40	36.5	36.5	36.5	56	22.3	0	0	---	0.00	30.075 
01:45	36.5	36.5	36.5	56	22.3	0	0	---	0.00	30.074 
01:50	36.3	36.3	36.3	56	22.1	0	0	---	0.00	30.073 
01:55	36.2	36.2	36.2	56	22.0	0	0	---	0.00	30.071 
02:00	36.0	36.0	36.0	57	22.3	0	0	---	0.00	30.070 
02:05	35.8	35.8	35.8	58	22.5	0	0	---	0.00	30.063 
02:10	35.6	35.6	35.6	58	22.3	0	0	---	0.00	30.061 
02:15	35.5	35.5	35.5	58	22.2	0	0	---	0.00	30.063 
02:20	35.3	35.3	35.3	58	22.0	0	0	---	0.00	30.063 
02:25	35.3	35.3	35.3	58	22.0	0	0	---	0.00	30.063 
02:30	35.2	35.2	35.2	58	21.9	0	0	---	0.00	30.061 
02:35	35.2	35.2	35.2	58	21.9	0	0	---	0.00	30.060 
02:40	35.5	35.5	35.5	58	22.2	0	0	---	0.00	30.056 
02:45	35.6	35.6	35.6	57	21.9	0	1	315	0.00	30.057 
02:50	35.9	35.9	35.9	56	21.8	0	1	315	0.00	30.056 
02:55	36.2	36.2	36.2	56	22.0	0	1	315	0.00	30.057 
03:00	36.3	36.3	36.3	54	21.3	0	2	315	0.00	30.067 
03:05	36.5	36.5	36.5	54	21.5	0	0	---	0.00	30.070 
03:10	36.6	36.6	36.6	54	21.5	0	0	---	0.00	30.072 
03:15	36.6	36.6	36.6	54	21.5	0	0	---	0.00	30.079 
03:20	36.6	36.6	36.6	54	21.5	0	0	---	0.00	30.086 
03:25	36.6	36.6	36.6	55	22.0	0	0	---	0.00	30.086 
03:30	36.5	36.5	36.5	55	21.9	0	0	---	0.00	30.089 
03:35	36.5	36.5	36.5	57	22.7	0	0	---	0.00	30.087 
03:40	36.3	36.3	36.3	57	22.5	0	0	---	0.00	30.088 
03:45	36.2	36.2	36.2	60	23.7	0	0	---	0.00	30.085 
03:50	36.2	36.2	36.2	58	22.9	0	1	315	0.00	30.076 
03:55	36.2	36.2	36.2	57	22.5	0	1	315	0.00	30.072 
04:00	36.3	36.3	36.3	58	23.0	0	1	315	0.00	30.068 
04:05	36.5	36.5	36.5	57	22.7	0	1	315	0.00	30.062 
04:10	36.3	36.3	36.3	57	22.5	0	1	315	0.00	30.057 
04:15	36.2	36.2	36.2	58	22.9	0	1	315	0.00	30.058 
04:20	36.0	36.0	36.0	59	23.1	0	0	---	0.00	30.058 
04:25	35.9	35.9	35.9	60	23.4	0	0	---	0.00	30.058 
04:30	35.6	35.6	35.6	60	23.1	0	0	---	0.00	30.056 
04:35	35.5	35.5	35.5	61	23.4	0	0	---	0.00	30.052 
04:40	35.3	35.3	35.3	62	23.6	0	0	---	0.00	30.049 
04:45	35.2	35.2	35.2	62	23.5	0	1	315	0.00	30.049 
04:50	35.0	35.0	35.0	63	23.7	0	0	---	0.00	30.051 
04:55	34.9	34.9	34.9	62	23.2	0	0	---	0.00	30.047 
05:00	34.9	34.9	34.9	62	23.2	0	0	---	0.00	30.045 
05:05	34.9	34.9	34.9	62	23.2	0	0	---	0.00	30.046 
05:10	35.0	35.0	35.0	61	22.9	0	1	315	0.00	30.046 
05:15	35.2	35.2	35.2	59	22.3	0	1	315	0.00	30.049 
05:20	35.5	35.5	35.5	59	22.6	0	1	315	0.00	30.045 
05:25	35.8	35.8	35.8	57	22.1	0	1	315	0.00	30.045 
05:30	35.9	35.9	35.9	57	22.2	0	1	315	0.00	30.056 
05:35	36.0	36.0	36.0	56	21.8	0	1	315	0.00	30.059 
05:40	36.2	36.2	36.2	57	22.5	0	2	315	0.00	30.055 
05:45	36.2	36.2	36.2	56	22.0	0	3	112	0.00	30.046 
05:50	36.2	36.2	36.2	56	22.0	1	2	112	0.00	30.047 
05:55	36.2	36.2	36.2	57	22.5	1	2	112	0.00	30.057 
06:00	36.2	36.2	36.2	56	22.0	1	3	112	0.00	30.054 
06:05	36.2	36.2	36.2	56	22.0	1	3	112	0.00	30.044 
06:10	36.2	36.2	36.2	58	22.9	1	3	90	0.00	30.040 
06:15	36.2	36.2	36.2	57	22.5	2	5	112	0.00	30.042 
06:20	36.0	36.0	36.0	56	21.8	2	3	90	0.00	30.046 
06:25	36.0	36.0	36.0	56	21.8	1	5	90	0.00	30.051 
06:30	36.0	36.0	36.0	58	22.7	1	3	112	0.00	30.052 
06:35	36.0	36.0	36.0	58	22.7	2	5	112	0.00	30.043 
06:40	36.0	36.0	36.0	58	22.7	2	6	112	0.00	30.042 
06:45	36.0	36.0	36.0	58	22.7	2	5	112	0.00	30.051 
06:50	36.0	36.0	36.0	60	23.5	1	2	112	0.00	30.054 
06:55	36.0	36.0	36.0	59	23.1	1	5	112	0.00	30.054 
07:00	36.2	36.2	36.2	59	23.3	1	4	112	0.00	30.055 
07:05	36.2	36.2	36.2	59	23.3	1	3	112	0.00	30.053 
07:10	36.2	36.2	36.2	59	23.3	2	5	112	0.00	30.047 
07:15	36.2	36.2	36.2	58	22.9	2	4	112	0.00	30.049 
07:20	36.2	36.2	36.2	61	24.1	2	5	90	0.00	30.045 
07:25	36.3	36.3	36.3	61	24.2	3	6	112	0.00	30.031 
07:30	36.3	36.3	36.3	62	24.5	3	7	112	0.00	30.027 
07:35	36.3	36.3	36.3	62	24.5	3	6	112	0.00	30.024 
07:40	36.5	33.3	36.5	61	24.3	4	10	112	0.00	30.011 
07:45	36.5	36.5	36.5	62	24.7	3	9	112	0.00	29.998 
07:50	36.6	36.6	36.6	63	25.2	3	10	90	0.00	29.995 
07:55	36.8	33.6	36.8	64	25.8	4	9	112	0.00	29.998 
08:00	36.8	36.8	36.8	63	25.4	3	7	112	0.00	29.998 
08:05	36.9	32.8	36.9	63	25.5	5	10	112	0.00	29.985 
08:10	36.9	32.1	36.9	63	25.5	6	13	112	0.00	29.964 
08:15	36.8	31.9	36.8	64	25.8	6	13	112	0.00	29.931 
08:20	36.6	31.0	36.6	64	25.6	7	18	112	0.00	29.920 
08:25	36.8	33.6	36.8	63	25.4	4	11	112	0.00	29.974 
08:30	37.0	37.0	37.0	62	25.2	2	5	90	0.00	30.001 
08:35	37.5	37.5	37.5	62	25.7	3	5	112	0.00	30.014 
08:40	37.8	37.8	37.8	60	25.2	2	5	112	0.00	30.021 
08:45	38.2	38.2	38.2	58	24.7	2	6	90	0.00	30.023 
08:50	38.3	38.3	38.3	57	24.4	3	8	112	0.00	30.020 
08:55	38.5	35.6	38.5	58	25.0	4	8	112	0.00	30.018 
09:00	38.5	38.5	38.5	58	25.0	3	9	112	0.00	30.021 
09:05	38.5	38.5	38.5	59	25.4	2	5	90	0.00	30.030 
09:10	38.5	38.5	38.5	60	25.8	3	5	112	0.00	30.025 
09:15	38.5	38.5	38.5	61	26.2	3	6	112	0.00	30.017 
09:20	38.5	35.6	38.5	61	26.2	4	9	90	0.00	30.016 
09:25	38.5	38.5	38.5	62	26.6	3	6	112	0.00	30.007 
09:30	38.5	38.5	38.5	64	27.4	2	6	112	0.00	30.000 
09:35	38.5	38.5	38.5	64	27.4	3	9	112	0.00	29.987 
09:40	38.5	38.5	38.5	64	27.4	3	8	112	0.00	29.980 
09:45	38.5	35.6	38.5	64	27.4	4	9	90	0.00	29.979 
09:50	38.5	35.6	38.5	64	27.4	4	7	112	0.00	29.981 
09:55	38.6	38.6	38.6	65	27.9	3	9	112	0.00	29.977 
10:00	38.6	34.8	38.6	64	27.5	5	11	112	0.00	29.983 
10:05	38.8	35.9	38.8	64	27.7	4	11	112	0.00	29.983 
10:10	38.8	35.9	38.8	64	27.7	4	8	112	0.00	29.979 
10:15	38.9	36.0	38.9	64	27.8	4	10	112	0.00	29.974 
10:20	39.1	36.3	39.1	62	27.2	4	10	112	0.00	29.987 
10:25	39.1	39.1	39.1	61	26.8	3	7	112	0.00	29.995 
10:30	39.2	39.2	39.2	60	26.5	3	11	90	0.00	30.000 
10:35	39.3	39.3	39.3	61	27.0	2	6	112	0.00	30.003 
10:40	39.6	39.6	39.6	59	26.5	2	6	112	0.00	30.005 
10:45	39.8	39.8	39.8	57	25.8	3	8	112	0.00	30.004 
10:50	39.9	39.9	39.9	57	25.9	2	6	112	0.00	30.003 
10:55	40.2	40.2	40.2	57	26.2	2	7	112	0.00	30.002 
11:00	40.2	40.2	40.2	54	24.9	2	7	112	0.00	29.998 
11:05	40.3	40.3	40.3	54	25.0	3	9	112	0.00	29.995 
11:10	40.3	40.3	40.3	51	23.6	3	9	45	0.00	29.988 
11:15	40.5	40.5	40.5	52	24.3	3	9	112	0.00	29.987 
11:20	40.5	40.5	40.5	51	23.8	3	9	112	0.00	29.984 
11:25	40.6	37.2	40.6	49	23.0	5	14	90	0.00	29.973 
11:30	40.6	37.2	40.6	49	23.0	5	14	112	0.00	29.970 
11:35	40.8	38.2	40.8	51	24.1	4	11	112	0.00	29.962 
11:40	40.8	38.2	40.8	52	24.6	4	15	112	0.00	29.947 
11:45	40.8	36.7	40.8	49	23.1	6	14	112	0.00	29.936 
11:50	40.9	36.8	40.9	48	22.7	6	14	112	0.00	29.928 
11:55	41.1	37.1	41.1	46	21.9	6	18	112	0.00	29.929 
12:00	41.1	37.1	41.1	47	22.4	6	14	112	0.00	29.931 
12:05	41.2	37.9	41.2	48	23.0	5	18	112	0.00	29.923 
12:10	41.2	38.7	41.2	49	23.5	4	12	112	0.00	29.916 
12:15	41.1	37.1	41.1	48	22.9	6	15	90	0.00	29.909 
12:20	41.1	37.1	41.1	51	24.4	6	15	112	0.00	29.906 
12:25	41.1	37.1	41.1	50	23.9	6	16	112	0.00	29.901 
12:30	40.9	37.5	40.9	48	22.7	5	15	90	0.00	29.903 
12:35	40.8	36.1	40.8	48	22.6	7	16	112	0.00	29.894 
12:40	40.6	36.5	40.6	50	23.4	6	14	112	0.00	29.893 
12:45	40.6	37.2	40.6	48	22.5	5	13	112	0.00	29.894 
12:50	40.6	37.2	40.6	49	23.0	5	15	90	0.00	29.893 
12:55	40.8	37.4	40.8	49	23.1	5	16	112	0.00	29.892 
13:00	40.6	36.5	40.6	49	23.0	6	14	112	0.00	29.891 
13:05	40.5	36.4	40.5	48	22.4	6	14	90	0.00	29.894 
13:10	40.3	36.1	40.3	48	22.2	6	15	112	0.00	29.902 
13:15	40.3	36.1	40.3	49	22.7	6	12	112	0.00	29.897 
13:20	40.3	36.1	40.3	49	22.7	6	13	112	0.00	29.894 
13:25	40.3	36.1	40.3	49	22.7	6	14	112	0.00	29.894 
13:30	40.3	35.5	40.3	49	22.7	7	14	90	0.00	29.891 
13:35	40.3	36.8	40.3	48	22.2	5	11	112	0.00	29.878 
13:40	40.3	36.8	40.3	48	22.2	5	15	112	0.00	29.878 
13:45	40.5	37.9	40.5	48	22.4	4	12	90	0.00	29.885 
13:50	40.5	36.4	40.5	50	23.3	6	15	112	0.00	29.884 
13:55	39.6	33.6	39.6	54	24.3	9	16	112	0.00	29.879 
14:00	38.9	34.4	38.9	60	26.2	6	14	112	0.00	29.888 
14:05	38.0	32.2	38.0	64	26.9	8	17	112	0.00	29.883 
14:10	37.6	32.2	37.6	67	27.7	7	14	112	0.00	29.890 
14:15	37.8	33.9	37.8	67	27.8	5	12	112	0.00	29.883 
14:20	37.6	32.2	37.6	68	28.0	7	14	112	0.00	29.882 
14:25	37.8	37.8	37.8	69	28.6	3	7	112	0.00	29.878 
14:30	37.8	34.8	37.8	69	28.6	4	12	90	0.00	29.865 
14:35	37.8	34.8	37.8	69	28.6	4	12	90	0.00	29.858 
14:40	37.6	37.6	37.6	69	28.4	3	11	112	0.00	29.877 
14:45	37.8	37.8	37.8	70	28.9	2	6	112	0.00	29.878 
14:50	37.5	33.5	37.5	69	28.3	5	12	112	0.00	29.881 
14:55	37.2	34.1	37.2	73	29.4	4	12	90	0.00	29.893 
15:00	36.9	36.9	36.9	74	29.4	3	9	112	0.00	29.889 
15:05	36.6	36.6	36.6	75	29.4	2	9	112	0.00	29.890 
15:10	36.3	33.0	36.3	76	29.5	4	10	112	0.00	29.885 
15:15	35.9	31.7	35.9	77	29.4	5	12	90	0.00	29.878 
15:20	35.5	35.5	35.5	79	29.6	3	9	90	0.00	29.868 
15:25	35.2	35.2	35.2	80	29.7	3	7	90	0.01	29.872 
15:30	34.7	31.2	34.7	82	29.8	4	9	112	0.00	29.880 
15:35	34.1	29.5	34.1	84	29.8	5	12	22	0.00	29.881 
15:40	33.7	30.0	33.7	85	29.7	4	12	112	0.00	29.872 
15:45	33.7	30.0	33.7	86	30.0	4	9	112	0.00	29.868 
15:50	33.5	29.8	33.5	86	29.8	4	13	112	0.00	29.868 
15:55	33.5	33.5	33.5	86	29.8	3	8	90	0.00	29.869 
16:00	33.7	30.0	33.7	85	29.7	4	10	112	0.00	29.865 
16:05	33.5	33.5	33.5	86	29.8	3	10	112	0.00	29.863 
16:10	33.5	33.5	33.5	87	30.1	3	9	45	0.00	29.837 
16:15	33.2	29.5	33.2	89	30.3	4	15	68	0.00	29.833 
16:20	33.1	33.1	33.1	90	30.5	3	13	22	0.00	29.838 
16:25	33.1	33.1	33.1	91	30.8	2	7	45	0.00	29.854 
16:30	32.9	32.9	32.9	91	30.6	3	7	45	0.00	29.852 
16:35	32.9	32.9	32.9	92	30.8	3	12	112	0.00	29.849 
16:40	32.8	29.0	32.8	92	30.7	4	9	45	0.00	29.839 
16:45	32.7	28.9	32.7	92	30.6	4	10	45	0.00	29.833 
16:50	32.5	28.7	32.5	92	30.4	4	9	112	0.00	29.829 
16:55	32.5	32.5	32.5	93	30.7	3	15	45	0.00	29.824 
17:00	32.5	28.7	32.5	93	30.7	4	13	112	0.00	29.830 
17:05	32.4	28.5	32.4	93	30.6	4	12	112	0.00	29.829 
17:10	32.4	27.5	32.4	93	30.6	5	11	112	0.01	29.834 
17:15	32.4	32.4	32.4	93	30.6	3	12	112	0.00	29.836 
17:20	32.5	27.7	32.5	93	30.7	5	13	112	0.00	29.843 
17:25	32.5	32.5	32.5	93	30.7	3	9	112	0.00	29.836 
17:30	32.5	32.5	32.5	93	30.7	3	10	90	0.00	29.850 
17:35	32.5	32.5	32.5	93	30.7	3	9	112	0.00	29.859 
17:40	32.5	32.5	32.5	93	30.7	2	6	22	0.00	29.849 
17:45	32.5	32.5	32.5	93	30.7	2	6	90	0.00	29.845 
17:50	32.5	32.5	32.5	93	30.7	3	9	112	0.00	29.837 
17:55	32.5	32.5	32.5	93	30.7	3	10	135	0.00	29.849 
18:00	32.5	32.5	32.5	93	30.7	3	10	90	0.00	29.845 
18:05	32.4	32.4	32.4	93	30.6	3	11	45	0.00	29.842 
18:10	32.4	32.4	32.4	93	30.6	3	8	45	0.00	29.837 
18:15	32.4	32.4	32.4	93	30.6	3	10	90	0.00	29.837 
18:20	32.4	32.4	32.4	94	30.9	2	6	68	0.00	29.839 
18:25	32.4	32.4	32.4	94	30.9	2	5	45	0.00	29.839 
18:30	32.4	32.4	32.4	94	30.9	3	9	90	0.00	29.836 
18:35	32.2	32.2	32.2	94	30.7	3	6	90	0.00	29.833 
18:40	32.2	32.2	32.2	94	30.7	2	8	68	0.00	29.836 
18:45	32.2	32.2	32.2	94	30.7	2	4	45	0.00	29.839 
18:50	32.4	32.4	32.4	94	30.9	1	3	68	0.00	29.848 
18:55	32.4	32.4	32.4	94	30.9	1	3	135	0.00	29.852 
19:00	32.4	32.4	32.4	94	30.9	1	4	112	0.00	29.850 
19:05	32.4	32.4	32.4	94	30.9	1	5	45	0.00	29.850 
19:10	32.4	32.4	32.4	94	30.9	1	4	112	0.00	29.846 
19:15	32.4	32.4	32.4	94	30.9	1	4	112	0.00	29.847 
19:20	32.4	32.4	32.4	94	30.9	0	1	45	0.00	29.847 
19:25	32.4	32.4	32.4	94	30.9	0	0	---	0.00	29.844 
19:30	32.4	32.4	32.4	94	30.9	0	0	---	0.00	29.846 
19:35	32.4	32.4	32.4	95	31.1	1	2	90	0.00	29.846 
19:40	32.5	32.5	32.5	95	31.2	1	5	68	0.00	29.846 
19:45	32.5	32.5	32.5	95	31.2	1	4	68	0.00	29.846 
19:50	32.5	32.5	32.5	95	31.2	1	4	45	0.00	29.845 
19:55	32.5	32.5	32.5	95	31.2	1	4	45	0.00	29.848 
20:00	32.5	32.5	32.5	95	31.2	1	3	45	0.00	29.850 
20:05	32.5	32.5	32.5	95	31.2	1	3	90	0.00	29.850 
20:10	32.5	32.5	32.5	95	31.2	1	3	112	0.00	29.851 
20:15	32.5	32.5	32.5	95	31.2	1	5	90	0.00	29.852 
20:20	32.5	32.5	32.5	95	31.2	1	4	90	0.00	29.855 
20:25	32.5	32.5	32.5	95	31.2	1	7	68	0.00	29.857 
20:30	32.5	32.5	32.5	95	31.2	0	2	68	0.00	29.857 
20:35	32.5	32.5	32.5	95	31.2	1	2	112	0.00	29.856 
20:40	32.5	32.5	32.5	95	31.2	1	2	112	0.00	29.855 
20:45	32.5	32.5	32.5	95	31.2	1	2	68	0.00	29.856 
20:50	32.5	32.5	32.5	95	31.2	1	3	68	0.00	29.857 
20:55	32.5	32.5	32.5	95	31.2	1	3	90	0.00	29.857 
21:00	32.5	32.5	32.5	95	31.2	0	3	90	0.00	29.860 
21:05	32.5	32.5	32.5	95	31.2	0	2	112	0.00	29.859 
21:10	32.5	32.5	32.5	95	31.2	1	3	112	0.00	29.859 
21:15	32.5	32.5	32.5	95	31.2	1	4	90	0.00	29.856 
21:20	32.7	32.7	32.7	95	31.4	2	5	68	0.00	29.854 
21:25	32.7	32.7	32.7	95	31.4	1	4	68	0.00	29.854 
21:30	32.7	32.7	32.7	95	31.4	2	4	90	0.00	29.851 
21:35	32.7	32.7	32.7	95	31.4	1	4	45	0.00	29.850 
21:40	32.7	32.7	32.7	95	31.4	1	5	112	0.00	29.851 
21:45	32.7	32.7	32.7	95	31.4	1	5	112	0.00	29.850 
21:50	32.7	32.7	32.7	95	31.4	1	4	68	0.00	29.850 
21:55	32.7	32.7	32.7	95	31.4	1	5	90	0.00	29.849 
22:00	32.7	32.7	32.7	95	31.4	1	4	112	0.00	29.847 
22:05	32.7	32.7	32.7	94	31.2	2	5	112	0.00	29.845 
22:10	32.8	32.8	32.8	94	31.3	2	6	90	0.00	29.846 
22:15	32.8	32.8	32.8	93	31.0	2	6	45	0.00	29.840 
22:20	32.8	32.8	32.8	93	31.0	2	6	68	0.00	29.835 
22:25	32.8	32.8	32.8	93	31.0	1	5	68	0.00	29.833 
22:30	32.8	32.8	32.8	92	30.7	2	4	45	0.00	29.831 
22:35	32.7	32.7	32.7	92	30.6	2	5	90	0.00	29.831 
22:40	32.7	32.7	32.7	92	30.6	2	5	68	0.00	29.831 
22:45	32.7	32.7	32.7	92	30.6	2	5	112	0.00	29.831 
22:50	32.7	32.7	32.7	92	30.6	2	6	45	0.00	29.831 
22:55	32.7	32.7	32.7	92	30.6	1	3	45	0.00	29.830 
23:00	32.7	32.7	32.7	92	30.6	2	7	68	0.00	29.827 
23:05	32.7	32.7	32.7	91	30.4	1	4	112	0.00	29.823 
23:10	32.5	32.5	32.5	91	30.2	1	3	112	0.00	29.818 
23:15	32.5	32.5	32.5	91	30.2	1	4	112	0.00	29.820 
23:20	32.4	32.4	32.4	91	30.1	1	3	68	0.00	29.819 
23:25	32.4	32.4	32.4	91	30.1	1	5	112	0.00	29.819 
23:30	32.4	32.4	32.4	91	30.1	1	4	68	0.00	29.818 
23:35	32.4	32.4	32.4	91	30.1	1	4	90	0.00	29.816 
23:40	32.4	32.4	32.4	91	30.1	0	3	68	0.00	29.815 
23:45	32.2	32.2	32.2	91	29.9	0	0	---	0.00	29.817 
23:50	32.2	32.2	32.2	91	29.9	0	0	---	0.00	29.818 
23:55	32.2	32.2	32.2	91	29.9	0	0	---	0.00	29.817 

CoCoRaHS
IN-AL-39
A2 Web Hosting
Creative Commons License
GoDaddy
Look for:

loaded 2017-10-19 12:17:27 • last modified 2010-11-18 10:43:29
Privacy PolicyDisclaimer
• wx.awcolley.com is powered by PmWiki v.2002016 •
• all content (unless otherwise noted) © 2017 A W Colley